createdAt,value
2022-12-29T00:01:43.523Z,87.07
2022-12-29T00:04:16.290Z,86.92
2022-12-29T00:06:48.740Z,87.29
2022-12-29T00:09:20.766Z,87.02
2022-12-29T00:11:48.003Z,87.73
2022-12-29T00:14:34.962Z,87.32
2022-12-29T00:17:13.851Z,87.11
2022-12-29T00:20:10.794Z,87.24
2022-12-29T00:23:00.337Z,87.38
2022-12-29T00:25:51.493Z,87.22
2022-12-29T00:28:41.453Z,87.03
2022-12-29T00:31:32.397Z,87.02
2022-12-29T00:34:27.483Z,87.23
2022-12-29T00:37:02.216Z,87.08
2022-12-29T00:39:58.953Z,87.00
2022-12-29T00:42:54.221Z,87.34
2022-12-29T00:45:27.583Z,87.25
2022-12-29T00:48:04.604Z,87.40
2022-12-29T00:50:39.048Z,87.25
2022-12-29T00:53:09.010Z,87.30
2022-12-29T00:55:41.593Z,87.24
2022-12-29T00:58:32.695Z,87.22
2022-12-29T01:01:13.339Z,87.45
2022-12-29T01:03:47.364Z,87.14
2022-12-29T01:06:17.504Z,87.05
2022-12-29T01:09:16.581Z,87.10
2022-12-29T01:11:50.806Z,87.24
2022-12-29T01:14:23.527Z,87.08
2022-12-29T01:17:01.431Z,87.44
2022-12-29T01:19:44.518Z,87.39
2022-12-29T01:22:22.331Z,87.30
2022-12-29T01:25:08.183Z,87.29
2022-12-29T01:27:38.152Z,87.24
2022-12-29T01:30:13.623Z,87.27
2022-12-29T01:32:48.947Z,87.36
2022-12-29T01:35:22.649Z,87.53
2022-12-29T01:37:56.946Z,87.74
2022-12-29T01:40:34.871Z,87.62
2022-12-29T01:43:11.832Z,87.66
2022-12-29T01:45:56.994Z,87.81
2022-12-29T01:48:28.112Z,87.99
2022-12-29T01:51:02.916Z,88.22
2022-12-29T01:53:44.401Z,88.39
2022-12-29T01:56:19.281Z,88.27
2022-12-29T01:58:57.007Z,88.12
2022-12-29T02:01:33.791Z,88.18
2022-12-29T02:04:04.793Z,88.21
2022-12-29T02:06:51.963Z,88.23
2022-12-29T02:09:21.633Z,88.41
2022-12-29T02:11:56.517Z,88.52
2022-12-29T02:14:35.610Z,88.25
2022-12-29T02:17:25.393Z,88.31
2022-12-29T02:20:30.085Z,88.70
2022-12-29T02:23:34.908Z,88.33
2022-12-29T02:26:30.434Z,88.48
2022-12-29T02:29:20.688Z,88.41
2022-12-29T02:32:05.956Z,88.55
2022-12-29T02:34:43.277Z,88.59
2022-12-29T02:37:33.858Z,88.37
2022-12-29T02:40:32.977Z,88.66
2022-12-29T02:43:58.222Z,88.37
2022-12-29T02:46:51.707Z,88.65
2022-12-29T02:49:33.478Z,88.13
2022-12-29T02:52:13.267Z,88.39
2022-12-29T02:54:46.278Z,88.39
2022-12-29T02:57:38.815Z,88.49
2022-12-29T03:00:26.431Z,88.67
2022-12-29T03:03:30.091Z,88.87
2022-12-29T03:06:09.771Z,89.01
2022-12-29T03:09:19.484Z,89.02
2022-12-29T03:12:38.149Z,88.95
2022-12-29T03:15:32.089Z,88.72
2022-12-29T03:18:07.152Z,89.04
2022-12-29T03:20:58.435Z,89.05
2022-12-29T03:23:54.711Z,89.14
2022-12-29T03:26:36.133Z,88.83
2022-12-29T03:29:10.048Z,88.73
2022-12-29T03:31:45.602Z,89.00
2022-12-29T03:34:22.591Z,89.20
2022-12-29T03:37:06.388Z,89.07
2022-12-29T03:39:49.266Z,88.72
2022-12-29T03:42:27.899Z,88.79
2022-12-29T03:45:03.756Z,88.73
2022-12-29T03:47:46.312Z,88.91
2022-12-29T03:50:19.216Z,88.87
2022-12-29T03:52:51.450Z,88.80
2022-12-29T03:55:22.514Z,89.07
2022-12-29T03:57:53.813Z,88.70
2022-12-29T04:00:31.636Z,88.82
2022-12-29T04:03:20.083Z,89.12
2022-12-29T04:05:58.438Z,89.15
2022-12-29T04:08:30.497Z,89.15
2022-12-29T04:11:00.724Z,89.37
2022-12-29T04:13:35.090Z,89.34
2022-12-29T04:16:09.396Z,89.11
2022-12-29T04:18:44.283Z,89.48
2022-12-29T04:21:20.634Z,89.43
2022-12-29T04:24:07.157Z,89.57
2022-12-29T04:26:39.080Z,89.64
2022-12-29T04:29:28.965Z,89.33
2022-12-29T04:32:11.950Z,89.55
2022-12-29T04:34:44.990Z,89.47
2022-12-29T04:37:29.914Z,89.51
2022-12-29T04:40:03.177Z,89.51
2022-12-29T04:42:50.791Z,89.62
2022-12-29T04:45:19.160Z,89.54
2022-12-29T04:48:12.178Z,89.64
2022-12-29T04:51:04.245Z,89.62
2022-12-29T04:53:45.848Z,89.46
2022-12-29T04:56:18.805Z,89.38
2022-12-29T04:58:48.138Z,89.31
2022-12-29T05:01:26.233Z,89.18
2022-12-29T05:04:01.579Z,89.22
2022-12-29T05:06:41.286Z,89.19
2022-12-29T05:09:11.600Z,89.17
2022-12-29T05:20:47.169Z,89.30
2022-12-29T05:23:27.292Z,89.54
2022-12-29T05:26:01.950Z,89.63
2022-12-29T05:28:53.467Z,89.73
2022-12-29T05:31:29.928Z,89.70
2022-12-29T05:34:14.149Z,89.72
2022-12-29T05:36:44.615Z,89.82
2022-12-29T05:39:19.042Z,89.93
2022-12-29T05:42:00.383Z,90.10
2022-12-29T05:44:42.535Z,89.86
2022-12-29T05:47:27.369Z,90.06
2022-12-29T05:50:23.832Z,90.12
2022-12-29T05:53:25.010Z,90.09
2022-12-29T05:55:57.542Z,90.04
2022-12-29T05:58:34.277Z,89.89
2022-12-29T06:01:13.075Z,90.13
2022-12-29T06:09:05.447Z,90.13
2022-12-29T06:11:37.370Z,90.06
2022-12-29T06:14:14.025Z,89.88
2022-12-29T06:16:49.526Z,90.04
2022-12-29T06:19:22.006Z,90.01
2022-12-29T06:22:02.023Z,90.06
2022-12-29T06:24:46.491Z,89.74
2022-12-29T06:27:23.296Z,90.01
2022-12-29T06:30:03.513Z,90.11
2022-12-29T06:32:36.395Z,90.04
2022-12-29T06:35:13.738Z,90.11
2022-12-29T06:37:54.466Z,89.93
2022-12-29T06:40:28.874Z,90.13
2022-12-29T06:43:20.744Z,89.88
2022-12-29T06:46:18.731Z,90.19
2022-12-29T06:48:51.116Z,90.19
2022-12-29T06:51:30.636Z,90.02
2022-12-29T06:53:57.890Z,90.21
2022-12-29T06:56:27.576Z,90.08
2022-12-29T06:59:04.407Z,89.92
2022-12-29T07:01:39.391Z,89.75
2022-12-29T07:04:09.203Z,89.83
2022-12-29T07:06:40.819Z,89.84
2022-12-29T07:09:12.105Z,89.89
2022-12-29T07:11:47.283Z,89.61
2022-12-29T07:14:21.054Z,89.41
2022-12-29T07:16:53.263Z,89.13
2022-12-29T07:19:23.852Z,88.96
2022-12-29T07:21:51.076Z,88.80
2022-12-29T07:24:26.393Z,88.85
2022-12-29T07:26:53.855Z,88.65
2022-12-29T07:29:26.892Z,88.65
2022-12-29T07:31:57.220Z,88.35
2022-12-29T07:34:31.655Z,88.15
2022-12-29T07:37:02.783Z,88.20
2022-12-29T07:39:34.912Z,87.89
2022-12-29T07:42:11.174Z,88.00
2022-12-29T07:44:42.942Z,87.89
2022-12-29T07:47:29.679Z,87.89
2022-12-29T07:50:07.241Z,87.92
2022-12-29T07:53:01.555Z,87.51
2022-12-29T07:55:57.601Z,87.25
2022-12-29T07:58:29.022Z,87.46
2022-12-29T08:02:14.757Z,88.01
2022-12-29T08:04:43.035Z,88.15
2022-12-29T08:07:15.630Z,88.64
2022-12-29T08:10:05.879Z,88.84
2022-12-29T08:12:44.997Z,88.81
2022-12-29T08:15:20.101Z,88.76
2022-12-29T08:17:56.391Z,88.72
2022-12-29T08:20:55.597Z,88.70
2022-12-29T08:23:38.470Z,88.15
2022-12-29T08:26:07.897Z,88.33
2022-12-29T08:28:37.465Z,88.09
2022-12-29T08:31:19.627Z,87.89
2022-12-29T08:33:53.321Z,87.81
2022-12-29T08:36:25.722Z,87.74
2022-12-29T08:39:02.364Z,87.59
2022-12-29T08:41:32.284Z,87.35
2022-12-29T08:44:09.791Z,87.35
2022-12-29T08:46:45.702Z,87.24
2022-12-29T08:49:24.500Z,87.20
2022-12-29T08:51:59.872Z,87.25
2022-12-29T08:54:29.390Z,87.14
2022-12-29T08:57:00.502Z,87.37
2022-12-29T08:59:40.498Z,87.02
2022-12-29T09:02:18.787Z,86.87
2022-12-29T09:05:01.439Z,86.80
2022-12-29T09:07:39.279Z,86.59
2022-12-29T09:10:14.299Z,86.11
2022-12-29T09:12:50.382Z,86.20
2022-12-29T09:15:17.661Z,86.31
2022-12-29T09:17:47.987Z,86.02
2022-12-29T09:20:25.466Z,85.45
2022-12-29T09:22:56.291Z,85.80
2022-12-29T09:25:29.366Z,85.87
2022-12-29T09:28:05.976Z,85.40
2022-12-29T09:30:44.279Z,85.13
2022-12-29T09:33:19.479Z,84.37
2022-12-29T09:35:54.448Z,83.56
2022-12-29T09:38:29.363Z,83.51
2022-12-29T09:41:16.263Z,83.45
2022-12-29T09:43:49.090Z,82.98
2022-12-29T09:46:37.004Z,83.16
2022-12-29T09:57:50.092Z,81.70
2022-12-29T10:00:58.813Z,81.14
2022-12-29T10:03:49.891Z,80.71
2022-12-29T10:07:19.417Z,81.18
2022-12-29T10:09:50.185Z,81.33
2022-12-29T10:12:35.518Z,80.41
2022-12-29T10:15:15.979Z,80.34
2022-12-29T10:18:24.567Z,80.13
2022-12-29T10:21:36.826Z,80.24
2022-12-29T10:24:12.710Z,80.47
2022-12-29T10:26:58.181Z,80.57
2022-12-29T10:29:51.427Z,81.06
2022-12-29T10:32:52.977Z,81.04
2022-12-29T10:35:33.207Z,81.00
2022-12-29T10:38:19.623Z,81.37
2022-12-29T10:41:06.180Z,80.89
2022-12-29T10:43:47.833Z,80.79
2022-12-29T10:46:31.913Z,80.97
2022-12-29T10:49:06.880Z,80.37
2022-12-29T10:51:41.671Z,80.21
2022-12-29T10:54:25.954Z,80.22
2022-12-29T10:57:03.453Z,79.72
2022-12-29T10:59:42.237Z,79.58
2022-12-29T11:02:23.493Z,79.58
2022-12-29T11:05:08.012Z,79.06
2022-12-29T11:07:38.196Z,78.81
2022-12-29T11:10:22.462Z,78.88
2022-12-29T11:13:04.993Z,79.49
2022-12-29T11:16:02.049Z,79.63
2022-12-29T11:18:59.228Z,79.77
2022-12-29T11:21:48.036Z,80.19
2022-12-29T11:24:33.636Z,80.71
2022-12-29T11:27:19.022Z,80.72
2022-12-29T11:30:00.687Z,81.01
2022-12-29T11:32:35.691Z,80.82
2022-12-29T11:35:09.446Z,81.27
2022-12-29T11:37:49.575Z,80.96
2022-12-29T11:40:25.813Z,80.91
2022-12-29T11:43:14.185Z,81.20
2022-12-29T11:45:52.034Z,81.31
2022-12-29T11:48:25.669Z,81.26
2022-12-29T11:51:09.949Z,81.28
2022-12-29T11:53:50.919Z,81.65
2022-12-29T11:56:42.152Z,81.50
2022-12-29T11:59:35.234Z,80.85
2022-12-29T12:02:46.935Z,80.58
2022-12-29T12:05:36.965Z,79.96
2022-12-29T12:08:46.083Z,79.56
2022-12-29T12:11:19.841Z,79.15
2022-12-29T12:14:08.025Z,79.17
2022-12-29T12:17:06.024Z,79.22
2022-12-29T12:20:02.374Z,79.08
2022-12-29T12:23:05.992Z,79.00
2022-12-29T12:25:43.294Z,78.50
2022-12-29T12:28:39.879Z,78.49
2022-12-29T12:31:21.762Z,78.02
2022-12-29T12:33:58.945Z,77.93
2022-12-29T12:37:10.610Z,77.51
2022-12-29T12:40:13.544Z,77.65
2022-12-29T12:43:30.857Z,78.17
2022-12-29T12:46:42.631Z,78.40
2022-12-29T12:49:44.587Z,78.48
2022-12-29T12:52:48.485Z,78.44
2022-12-29T12:55:51.774Z,78.25
2022-12-29T12:58:44.706Z,78.66
2022-12-29T13:01:21.861Z,78.34
2022-12-29T13:04:27.638Z,79.10
2022-12-29T13:07:14.153Z,78.83
2022-12-29T13:09:49.865Z,79.40
2022-12-29T13:12:46.497Z,78.99
2022-12-29T13:15:53.839Z,79.29
2022-12-29T13:18:59.516Z,79.11
2022-12-29T13:22:06.215Z,79.38
2022-12-29T13:25:21.746Z,79.28
2022-12-29T13:27:58.833Z,79.59
2022-12-29T13:31:06.027Z,79.91
2022-12-29T13:33:55.299Z,79.55
2022-12-29T13:36:48.943Z,79.88
2022-12-29T13:39:21.245Z,80.15
2022-12-29T13:41:59.883Z,80.01
2022-12-29T13:44:48.023Z,79.65
2022-12-29T13:47:33.556Z,79.71
2022-12-29T13:50:22.872Z,79.95
2022-12-29T13:53:25.978Z,80.27
2022-12-29T13:56:01.970Z,80.22
2022-12-29T13:59:03.201Z,80.67
2022-12-29T14:02:09.107Z,81.07
2022-12-29T14:05:01.768Z,81.36
2022-12-29T14:07:38.620Z,81.63
2022-12-29T14:10:38.129Z,81.72
2022-12-29T14:13:18.028Z,81.80
2022-12-29T14:15:58.897Z,82.09
2022-12-29T14:18:47.894Z,82.14
2022-12-29T14:21:18.676Z,82.32
2022-12-29T14:23:50.635Z,82.49
2022-12-29T14:26:33.140Z,82.94
2022-12-29T14:29:29.358Z,82.88
2022-12-29T14:32:28.443Z,83.22
2022-12-29T14:35:19.051Z,83.05
2022-12-29T14:37:54.796Z,82.68
2022-12-29T14:40:39.669Z,82.21
2022-12-29T14:43:17.232Z,82.13
2022-12-29T14:46:16.634Z,81.71
2022-12-29T14:48:46.060Z,82.18
2022-12-29T14:51:52.009Z,82.03
2022-12-29T14:54:58.605Z,83.06
2022-12-29T14:57:37.068Z,83.42
2022-12-29T15:00:13.311Z,83.66
2022-12-29T15:02:58.210Z,83.88
2022-12-29T15:05:45.381Z,84.31
2022-12-29T15:08:26.786Z,84.57
2022-12-29T15:11:04.143Z,84.81
2022-12-29T15:13:47.838Z,85.08
2022-12-29T15:16:43.261Z,86.09
2022-12-29T15:19:40.244Z,86.22
2022-12-29T15:22:13.107Z,85.97
2022-12-29T15:24:47.371Z,85.89
2022-12-29T15:27:23.332Z,86.09
2022-12-29T15:30:21.256Z,86.50
2022-12-29T15:32:54.989Z,86.14
2022-12-29T15:35:35.493Z,86.17
2022-12-29T15:38:40.769Z,86.35
2022-12-29T15:42:02.443Z,86.38
2022-12-29T15:45:10.162Z,87.05
2022-12-29T15:47:45.028Z,87.03
2022-12-29T15:50:46.359Z,87.39
2022-12-29T15:53:32.084Z,87.76
2022-12-29T15:56:12.555Z,87.91
2022-12-29T15:58:51.806Z,87.70
2022-12-29T16:01:36.032Z,88.04
2022-12-29T16:04:14.389Z,88.10
2022-12-29T16:07:07.066Z,87.96
2022-12-29T16:10:37.260Z,88.03
2022-12-29T16:13:18.453Z,88.15
2022-12-29T16:16:04.479Z,88.42
2022-12-29T16:18:43.071Z,88.45
2022-12-29T16:21:55.218Z,88.20
2022-12-29T16:24:29.931Z,88.41
2022-12-29T16:27:27.607Z,88.22
2022-12-29T16:30:00.299Z,88.11
2022-12-29T16:32:54.721Z,88.08
2022-12-29T16:35:32.902Z,88.29
2022-12-29T16:38:16.949Z,88.31
2022-12-29T16:41:09.988Z,88.42
2022-12-29T16:43:46.095Z,88.15
2022-12-29T16:46:31.565Z,88.21
2022-12-29T16:49:09.485Z,88.50
2022-12-29T16:51:55.357Z,88.69
2022-12-29T16:54:35.124Z,88.86
2022-12-29T16:57:10.196Z,88.96
2022-12-29T16:59:44.792Z,88.74
2022-12-29T17:02:24.024Z,89.11
2022-12-29T17:05:01.108Z,89.13
2022-12-29T17:07:35.888Z,89.38
2022-12-29T17:10:16.526Z,89.71
2022-12-29T17:12:52.285Z,89.82
2022-12-29T17:18:25.859Z,89.90
2022-12-29T17:21:10.467Z,90.01
2022-12-29T17:23:40.051Z,90.19
2022-12-29T17:26:09.090Z,90.05
2022-12-29T17:28:45.031Z,90.05
2022-12-29T17:31:18.279Z,89.79
2022-12-29T17:33:45.519Z,90.19
2022-12-29T17:36:21.187Z,90.00
2022-12-29T17:39:02.763Z,89.89
2022-12-29T17:41:30.206Z,89.76
2022-12-29T17:44:07.394Z,90.10
2022-12-29T17:46:45.070Z,90.28
2022-12-29T17:49:23.589Z,90.36
2022-12-29T17:51:55.954Z,90.35
2022-12-29T17:54:25.706Z,90.50
2022-12-29T17:57:11.924Z,90.57
2022-12-29T17:59:55.055Z,90.69
2022-12-29T18:02:30.068Z,90.49
2022-12-29T18:05:00.275Z,90.70
2022-12-29T18:07:39.635Z,90.43
2022-12-29T18:10:18.054Z,90.34
2022-12-29T18:12:49.962Z,90.49
2022-12-29T18:15:27.664Z,90.56
2022-12-29T18:18:04.572Z,90.60
2022-12-29T18:20:41.048Z,90.80
2022-12-29T18:23:30.063Z,90.80
2022-12-29T18:26:03.585Z,90.93
2022-12-29T18:28:39.975Z,90.61
2022-12-29T18:31:23.596Z,90.62
2022-12-29T18:34:20.843Z,90.69
2022-12-29T18:37:13.535Z,90.90
2022-12-29T18:40:12.195Z,90.95
2022-12-29T18:42:49.751Z,91.28
2022-12-29T18:45:21.409Z,91.26
2022-12-29T18:48:03.883Z,91.16
2022-12-29T18:50:42.586Z,91.16
2022-12-29T18:53:30.290Z,91.26
2022-12-29T18:56:01.349Z,91.50
2022-12-29T18:58:34.253Z,91.79
2022-12-29T19:01:21.850Z,91.89
2022-12-29T19:03:58.342Z,91.96
2022-12-29T19:06:25.535Z,92.12
2022-12-29T19:08:56.804Z,92.31
2022-12-29T19:11:26.130Z,92.53
2022-12-29T19:13:56.091Z,92.64
2022-12-29T19:16:27.780Z,92.66
2022-12-29T19:21:54.502Z,92.74
2022-12-29T19:24:26.841Z,92.74
2022-12-29T19:27:10.952Z,93.20
2022-12-29T19:29:47.984Z,93.27
2022-12-29T19:32:27.243Z,93.26
2022-12-29T19:35:04.141Z,93.37
2022-12-29T19:37:40.544Z,93.49
2022-12-29T19:40:19.820Z,93.59
2022-12-29T19:42:59.067Z,93.60
2022-12-29T19:45:36.011Z,93.54
2022-12-29T19:48:16.220Z,93.74
2022-12-29T19:50:46.745Z,93.88
2022-12-29T19:53:16.881Z,94.17
2022-12-29T19:55:53.333Z,94.32
2022-12-29T19:58:48.052Z,94.08
2022-12-29T20:01:22.750Z,93.97
2022-12-29T20:04:01.463Z,94.00
2022-12-29T20:06:29.772Z,93.94
2022-12-29T20:08:56.910Z,94.42
2022-12-29T20:11:36.008Z,94.30
2022-12-29T20:14:03.610Z,93.98
2022-12-29T20:17:12.345Z,94.06
2022-12-29T20:20:43.603Z,94.12
2022-12-29T20:23:18.047Z,94.13
2022-12-29T20:25:59.637Z,94.18
2022-12-29T20:28:38.445Z,93.96
2022-12-29T20:31:12.425Z,93.89
2022-12-29T20:33:42.406Z,93.91
2022-12-29T20:36:22.432Z,93.98
2022-12-29T20:38:52.992Z,93.79
2022-12-29T20:41:29.118Z,94.03
2022-12-29T20:44:07.187Z,94.07
2022-12-29T20:46:44.294Z,93.42
2022-12-29T20:49:25.737Z,93.63
2022-12-29T20:52:10.374Z,93.49
2022-12-29T20:55:06.733Z,93.41
2022-12-29T20:58:05.664Z,93.61
2022-12-29T21:00:26.943Z,93.19
2022-12-29T21:03:01.249Z,92.89
2022-12-29T21:05:40.327Z,93.04
2022-12-29T21:08:10.635Z,93.19
2022-12-29T21:10:51.541Z,93.22
2022-12-29T21:16:19.063Z,93.10
2022-12-29T21:18:52.118Z,92.66
2022-12-29T21:21:30.621Z,92.35
2022-12-29T21:24:06.601Z,92.10
2022-12-29T21:26:36.305Z,91.93
2022-12-29T21:29:07.815Z,91.93
2022-12-29T21:31:42.878Z,91.68
2022-12-29T21:34:10.607Z,91.43
2022-12-29T21:36:46.801Z,91.02
2022-12-29T21:39:16.424Z,91.20
2022-12-29T21:41:48.745Z,91.02
2022-12-29T21:44:40.207Z,90.98
2022-12-29T21:47:07.866Z,91.10
2022-12-29T21:49:48.294Z,90.87
2022-12-29T21:52:26.549Z,90.58
2022-12-29T21:55:24.362Z,90.48
2022-12-29T21:58:12.239Z,90.41
2022-12-29T22:01:03.883Z,90.62
2022-12-29T22:03:52.653Z,90.77
2022-12-29T22:06:43.967Z,90.43
2022-12-29T22:09:46.628Z,90.24
2022-12-29T22:12:48.260Z,89.86
2022-12-29T22:15:23.066Z,90.18
2022-12-29T22:17:54.002Z,90.03
2022-12-29T22:20:32.957Z,89.27
2022-12-29T22:23:05.453Z,89.31
2022-12-29T22:25:41.104Z,89.25
2022-12-29T22:28:19.165Z,89.22
2022-12-29T22:31:01.853Z,89.38
2022-12-29T22:33:31.909Z,89.62
2022-12-29T22:36:01.720Z,89.34
2022-12-29T22:38:39.053Z,89.19
2022-12-29T22:41:18.320Z,89.17
2022-12-29T22:43:48.659Z,89.34
2022-12-29T22:46:20.847Z,89.20
2022-12-29T22:48:53.727Z,89.46
2022-12-29T22:51:28.281Z,89.52
2022-12-29T22:53:58.125Z,89.27
2022-12-29T22:56:25.299Z,89.35
2022-12-29T22:58:59.861Z,89.08
2022-12-29T23:01:38.905Z,89.09
2022-12-29T23:05:02.296Z,89.10
2022-12-29T23:07:12.826Z,89.40
2022-12-29T23:09:50.421Z,89.62
2022-12-29T23:12:20.767Z,89.23
2022-12-29T23:14:55.475Z,89.10
2022-12-29T23:17:25.380Z,88.94
2022-12-29T23:19:54.700Z,89.01
2022-12-29T23:22:28.495Z,88.58
2022-12-29T23:27:52.911Z,87.99
2022-12-29T23:30:28.357Z,87.70
2022-12-29T23:33:05.361Z,87.35
2022-12-29T23:35:43.259Z,87.20
2022-12-29T23:38:26.823Z,87.08
2022-12-29T23:40:59.024Z,87.11
2022-12-29T23:43:29.525Z,87.29
2022-12-29T23:46:02.728Z,87.31
2022-12-29T23:48:32.096Z,87.20
2022-12-29T23:51:08.843Z,87.26
2022-12-29T23:53:48.688Z,87.48
2022-12-29T23:56:22.321Z,87.46
2022-12-29T23:58:56.498Z,87.49
